Morning Carina — 3ENP9 — position and weather

sailwx.info

Track history (hours):
 
Tides and Currents Weather Stations Pressure Air Temp Water Temp Dewpoint Dewpoint Depression Visibility Wind Speed Wind Dir Waves Ship Positions

Morning Carina

Last reported at 2018-Aug-18 11:51 UTC. Time now 2018-Aug-21 04:18 UTC.
Position N 38°06' E 122°00'.

Length 199 m; draft 8.1 m.

Type: Cargo ship. MMSI: 351392000.

Date/timePositionNaut miles runAvg speedWind from/ knotsBaromVisibWave heightAir tempDewpointWater temp
2018-Aug-18 11:51N 38°06' E 122°00'1019.2
2018-Aug-18 11:18N 38°10' E 121°48'619.2
2018-Aug-18 11:00N 38°12' E 121°41'918.7
2018-Aug-18 10:30N 38°17' E 121°31'918.4
2018-Aug-18 09:59N 38°21' E 121°20'918.1
2018-Aug-18 09:30N 38°26' E 121°11'815.4
2018-Aug-18 09:00N 38°29' E 121°02'612.3
2018-Aug-18 08:30N 38°32' E 120°55'713.3
2018-Aug-18 08:00N 38°35' E 120°47'918.2
2018-Aug-18 07:30N 38°36' E 120°36'918.3
2018-Aug-18 07:00N 38°38' E 120°24'918.3
2018-Aug-18 06:31N 38°38' E 120°13'918.4
2018-Aug-18 06:00N 38°39' E 120°01'918.5
2018-Aug-18 05:30N 38°40' E 119°49'918.7
2018-Aug-18 05:00N 38°41' E 119°37'1018.8
2018-Aug-18 04:30N 38°42' E 119°25'919.3
2018-Aug-18 04:00N 38°43' E 119°13'1019.9
2018-Aug-18 03:30N 38°45' E 119°00'1019.6
2018-Aug-18 03:00N 38°47' E 118°48'1019.6
2018-Aug-18 02:31N 38°48' E 118°36'36 1.1
2018-Aug-16 16:14N 38°43' E 119°21'816.9
2018-Aug-16 15:44N 38°43' E 119°32'416.9
2018-Aug-16 15:29N 38°43' E 119°37'916.8
2018-Aug-16 14:58N 38°42' E 119°49'1316.6
2018-Aug-16 14:11N 38°41' E 120°05'316.5
2018-Aug-16 14:00N 38°40' E 120°09'916.3
2018-Aug-16 13:27N 38°40' E 120°21'816.4
2018-Aug-16 12:58N 38°39' E 120°31'2213.6
2018-Aug-16 11:21N 38°36' E 120°58'412.1
2018-Aug-16 11:00N 38°33' E 121°03'812.6
2018-Aug-16 10:24N 38°29' E 121°11'717.3
2018-Aug-16 10:00N 38°26' E 121°19'  
2018-Aug-13 20:54N 23°58' E 118°43'5716.6
2018-Aug-13 17:28N 23°21' E 117°55'817.2
2018-Aug-13 16:58N 23°16' E 117°48'  
Track history (hours):
 
Tides and Currents Weather Stations Pressure Air Temp Water Temp Dewpoint Dewpoint Depression Visibility Wind Speed Wind Dir Waves Ship Positions

Morning Carina

Last reported at 2018-Aug-18 11:51 UTC. Time now 2018-Aug-21 04:18 UTC.
Position N 38°06' E 122°00'.

Length 199 m; draft 8.1 m.

Type: Cargo ship. MMSI: 351392000.

Date/timePositionNaut miles runAvg speedWind from/ knotsBaromVisibWave heightAir tempDewpointWater temp
2018-Aug-18 11:51N 38°06' E 122°00'1019.2
2018-Aug-18 11:18N 38°10' E 121°48'619.2
2018-Aug-18 11:00N 38°12' E 121°41'918.7
2018-Aug-18 10:30N 38°17' E 121°31'918.4
2018-Aug-18 09:59N 38°21' E 121°20'918.1
2018-Aug-18 09:30N 38°26' E 121°11'815.4
2018-Aug-18 09:00N 38°29' E 121°02'612.3
2018-Aug-18 08:30N 38°32' E 120°55'713.3
2018-Aug-18 08:00N 38°35' E 120°47'918.2
2018-Aug-18 07:30N 38°36' E 120°36'918.3
2018-Aug-18 07:00N 38°38' E 120°24'918.3
2018-Aug-18 06:31N 38°38' E 120°13'918.4
2018-Aug-18 06:00N 38°39' E 120°01'918.5
2018-Aug-18 05:30N 38°40' E 119°49'918.7
2018-Aug-18 05:00N 38°41' E 119°37'1018.8
2018-Aug-18 04:30N 38°42' E 119°25'919.3
2018-Aug-18 04:00N 38°43' E 119°13'1019.9
2018-Aug-18 03:30N 38°45' E 119°00'1019.6
2018-Aug-18 03:00N 38°47' E 118°48'1019.6
2018-Aug-18 02:31N 38°48' E 118°36'36 1.1
2018-Aug-16 16:14N 38°43' E 119°21'816.9
2018-Aug-16 15:44N 38°43' E 119°32'416.9
2018-Aug-16 15:29N 38°43' E 119°37'916.8
2018-Aug-16 14:58N 38°42' E 119°49'1316.6
2018-Aug-16 14:11N 38°41' E 120°05'316.5
2018-Aug-16 14:00N 38°40' E 120°09'916.3
2018-Aug-16 13:27N 38°40' E 120°21'816.4
2018-Aug-16 12:58N 38°39' E 120°31'2213.6
2018-Aug-16 11:21N 38°36' E 120°58'412.1
2018-Aug-16 11:00N 38°33' E 121°03'812.6
2018-Aug-16 10:24N 38°29' E 121°11'717.3
2018-Aug-16 10:00N 38°26' E 121°19'  
2018-Aug-13 20:54N 23°58' E 118°43'5716.6
2018-Aug-13 17:28N 23°21' E 117°55'817.2
2018-Aug-13 16:58N 23°16' E 117°48'  

Dump ship's entire track history